Aviation Digital Data Service (ADDS)

Output produced by METARs form (0306 UTC 18 August 2017)
found at http://www.aviationweather.gov/adds/metars/
 
SLCO 172300Z 18015KT 9999 BKN013 BKN080 OVC200 20/19 Q1012
TAF SLCO 172255Z 1800/1824 00000KT 9999 BKN010 BKN070 TX34/1819Z TN19 /1810Z 
     BECMG 1813/1817 1013KT 8000 BKN009 BKN070 
     TEMPO 1819/1822 7000 SHRA SCT023 FEW027CB SCT080
       
SLCB 180300Z 15012KT 9999 FEW027 BKN200 16/05 Q1024
TAF SLCB 172255Z 1800/1824 16010KT 9999 FEW027 SCT070 TX27/1819Z TN09/1811Z 
     BECMG 1804/1806 00000KT 
     BECMG 1816/1818 29010KT FEW030
       
SLLP 180300Z 09005KT 4000E VCFG FEW003 SCT200 02/01 Q1037
TAF SLLP 172255Z 1800/1824 07005KT 9999 FEW015 FEW017CB SCT070 TX16/1820Z TNM03/1810Z 
     BECMG 1803/1806 4000E VCFG FEW002 
     TEMPO 1814/ 1817 30007KT 9999 NSW 
     TEMPO 1818/1821 31010G20KT FEW017
       
SLPS 172300Z 00000KT 9999 BKN013 OVC070 20/19 Q1013
TAF SLPS 172255Z 1800/1824 00000KT 8000 RA BKN010 OVC070 TX27/1820Z TN16/1811Z 
     BECMG 1804/1806 9999 SCT010 BKN023 BKN070 
     BECMG 1815/1818 06008KT SCT023 BKN080
       
SLRI 172300Z 19006KT 5000 FU BKN017 BKN200 26/22 Q1011
SLSA 172300Z 19008KT 9999 FEW020 BKN080 BKN200 21/17 Q1012
SLET 172300Z 27003KT 9999 FEW025 BKN070 19/17 Q1014
TAF COR SLET 172255Z 1800/1824 VRB02KT 9999 SCT010 BKN023 BKN070 TX26/1820Z TN18/1811Z 
     TEMPO 1809/1812 6000 RA 
     BECMG 1815/1818 33010KT 9999 FEW015 BKN023 BKN080
       
SLVR 180300Z 00000KT 9999 BKN025 OVC070 17/17 Q1015
TAF COR SLVR 172255Z 1800/1824 VRB02KT 9999 SCT010 BKN023 BKN070 TX26/1820Z TN18/1811Z 
     TEMPO 1809/1812 8000 RA 
     BECMG 1815/1818 34010KT 9999 FEW015 BKN023 BKN080
       
SLTJ 180300Z 00000KT 9999 NSC 10/07 Q1022
TAF COR SLTJ 172255Z 1800/1824 00000KT 9999 FEW023 TX27/1819Z TN07/ 1811Z 
     BECMG 1815/1817 13010KT NSC
       
SLTR 172300Z 21004KT 9999 FEW020 OVC070 20/18 Q1013
TAF SLTR 172255Z 1800/1824 00000KT 9999 SCT020 OVC070 TX32/1819Z TN19 /1810Z 
     BECMG 1813/1817 16011KT BKN017 BKN070 
     TEMPO 1819/1822 8000 SHRA SCT020 FEW023CB
       
SLYA 172300Z 00000KT 9999 NSC 19/14 Q1015